Terminal Aerodrome Forecast
Issued by NWS Jackson, MS

Home | Current Version | Previous Version | Text Only | Print | Product List | Glossary On
Versions: 1 2 3 4 5 6 7 8 9 10 11
526
FTUS44 KJAN 270559
TAFHBG
TAF
KHBG 270559Z 2706/2806 24015G25KT 6SM TSRA BKN015CB OVC040
     FM270700 24010KT P6SM BKN015 OVC090
     FM271600 27006KT P6SM FEW025 SCT250=

USA.gov is the U.S. government's official web portal to all federal, state and local government web resources and services.